Time;durP1;ratioP1;P1;durP2;ratioP2;P2;SDS_P1;SDS_P2;PMS_P1;PMS_P2;Temp;Humidity;BMP_temperature;BMP_pressure;BME280_temperature;BME280_humidity;BME280_pressure;Samples;Min_cycle;Max_cycle;Signal;HPM_P1;HPM_P2
2021/12/10 00:00:50;;;;;;;4.57;2.73;;;4.60;99.90;;;;;;5047751;28;20477;-86
2021/12/10 00:03:19;;;;;;;6.93;3.33;;;4.50;99.90;;;;;;5037233;28;20469;-88
2021/12/10 00:05:52;;;;;;;4.70;3.30;;;4.50;99.90;;;;;;5057127;28;20447;-88
2021/12/10 00:08:19;;;;;;;7.10;3.17;;;4.40;99.90;;;;;;5055616;28;20442;-87
2021/12/10 00:10:50;;;;;;;5.70;2.90;;;4.30;99.90;;;;;;5034540;28;20445;-89
2021/12/10 00:13:17;;;;;;;8.23;4.07;;;4.20;99.90;;;;;;5039408;28;20477;-86
2021/12/10 00:15:45;;;;;;;5.20;3.07;;;4.20;99.90;;;;;;5036069;28;20825;-87
2021/12/10 00:18:16;;;;;;;6.57;3.43;;;4.20;99.90;;;;;;5033468;28;20461;-87
2021/12/10 00:20:45;;;;;;;3.77;2.80;;;4.10;99.90;;;;;;5034211;28;20506;-87
2021/12/10 00:23:17;;;;;;;4.70;2.60;;;4.10;99.90;;;;;;5054134;28;20477;-85
2021/12/10 00:25:48;;;;;;;8.77;2.80;;;4.10;99.90;;;;;;5038104;28;20455;-87
2021/12/10 00:28:20;;;;;;;2.73;2.53;;;4.00;99.90;;;;;;5033155;28;20540;-87
2021/12/10 00:31:01;;;;;;;4.20;2.50;;;4.00;99.90;;;;;;5019151;28;20446;-86
2021/12/10 00:33:30;;;;;;;3.17;2.77;;;4.00;99.90;;;;;;5052540;28;20484;-87
2021/12/10 00:35:57;;;;;;;8.30;2.90;;;4.00;99.90;;;;;;5035335;28;20449;-87
2021/12/10 00:38:25;;;;;;;6.97;2.47;;;3.90;99.90;;;;;;5042422;28;20456;-88
2021/12/10 00:40:52;;;;;;;5.00;2.60;;;3.90;99.90;;;;;;5037644;28;20483;-88
2021/12/10 00:43:19;;;;;;;6.53;2.87;;;3.90;99.90;;;;;;5033171;28;20848;-88
2021/12/10 00:45:46;;;;;;;7.63;3.43;;;3.80;99.90;;;;;;5033249;28;20924;-87
2021/12/10 00:48:13;;;;;;;4.93;3.00;;;3.80;99.90;;;;;;5042338;28;20445;-87
2021/12/10 00:50:44;;;;;;;7.23;2.70;;;3.80;99.90;;;;;;5037268;28;20914;-88
2021/12/10 00:53:11;;;;;;;4.60;2.53;;;3.70;99.90;;;;;;5014593;28;21003;-88
2021/12/10 00:55:39;;;;;;;8.53;2.50;;;3.70;99.90;;;;;;5033297;28;20452;-86
2021/12/10 00:58:07;;;;;;;2.73;2.10;;;3.70;99.90;;;;;;5033147;28;20448;-87
2021/12/10 01:00:38;;;;;;;4.30;2.40;;;3.60;99.90;;;;;;5038439;28;20490;-87
2021/12/10 01:03:07;;;;;;;4.90;3.00;;;3.60;99.90;;;;;;5053961;28;20441;-87
2021/12/10 01:05:35;;;;;;;10.90;4.70;;;3.60;99.90;;;;;;5034469;28;20448;-88
2021/12/10 01:08:02;;;;;;;9.30;3.40;;;3.50;99.90;;;;;;5033280;28;20959;-88
2021/12/10 01:10:32;;;;;;;2.77;2.10;;;3.50;99.90;;;;;;5033222;28;20442;-87
2021/12/10 01:13:04;;;;;;;7.13;3.07;;;3.50;99.90;;;;;;5033012;28;20527;-87
2021/12/10 01:15:52;;;;;;;7.43;2.00;;;3.40;99.90;;;;;;5033290;28;20456;-88
2021/12/10 01:23:59;;;;;;;4.90;2.67;;;3.30;99.90;;;;;;5018852;28;20519;-87
2021/12/10 01:26:50;;;;;;;6.43;2.80;;;3.30;99.90;;;;;;5056079;28;20539;-86
2021/12/10 01:29:24;;;;;;;4.43;2.67;;;3.30;99.90;;;;;;5052892;28;20459;-86
2021/12/10 01:31:52;;;;;;;6.93;2.80;;;3.30;99.90;;;;;;5038100;28;20448;-88
2021/12/10 01:34:20;;;;;;;4.00;1.98;;;3.20;99.90;;;;;;5033597;28;20467;-87
2021/12/10 01:36:47;;;;;;;4.93;2.00;;;3.20;99.90;;;;;;5034079;28;20221;-87
2021/12/10 01:39:16;;;;;;;5.17;2.60;;;3.20;99.90;;;;;;5031817;28;20641;-87
2021/12/10 01:41:53;;;;;;;3.63;1.90;;;3.20;99.90;;;;;;5032375;28;20480;-88
2021/12/10 01:44:27;;;;;;;5.60;2.13;;;3.10;99.90;;;;;;5033515;28;20506;-88
2021/12/10 01:46:55;;;;;;;9.10;3.10;;;3.10;99.90;;;;;;5034897;28;20553;-88
2021/12/10 01:49:22;;;;;;;5.97;2.37;;;3.00;99.90;;;;;;5035365;28;20457;-88
2021/12/10 01:51:49;;;;;;;5.83;2.50;;;2.90;99.90;;;;;;5036849;28;21130;-88
2021/12/10 01:54:21;;;;;;;3.83;2.10;;;2.80;99.90;;;;;;5052988;28;20483;-87
2021/12/10 01:56:50;;;;;;;6.72;2.38;;;2.90;99.90;;;;;;5035849;28;20458;-87
2021/12/10 01:59:19;;;;;;;3.47;1.80;;;2.90;99.90;;;;;;5034885;28;20250;-88
2021/12/10 02:01:52;;;;;;;4.50;2.17;;;2.90;99.90;;;;;;5036726;28;20901;-87
2021/12/10 02:04:23;;;;;;;4.50;2.07;;;2.90;99.90;;;;;;5043629;28;20448;-86
2021/12/10 02:06:50;;;;;;;4.45;2.25;;;2.90;99.90;;;;;;5053769;28;20999;-86
2021/12/10 02:09:17;;;;;;;5.90;2.40;;;3.00;99.90;;;;;;5035591;28;20207;-87
2021/12/10 02:11:45;;;;;;;5.70;2.07;;;3.00;99.90;;;;;;5035904;28;20808;-88
2021/12/10 02:14:12;;;;;;;6.47;3.10;;;3.00;99.90;;;;;;5036037;28;20475;-87
2021/12/10 02:16:39;;;;;;;12.30;3.33;;;2.90;99.90;;;;;;5051964;28;20205;-87
2021/12/10 02:19:09;;;;;;;2.70;1.80;;;3.00;99.90;;;;;;5050790;28;20483;-87
2021/12/10 02:21:39;;;;;;;4.57;2.20;;;3.00;99.90;;;;;;5035236;28;20484;-87
2021/12/10 02:24:07;;;;;;;5.45;2.40;;;3.00;99.90;;;;;;5035345;28;20569;-87
2021/12/10 02:26:40;;;;;;;4.20;2.50;;;2.90;99.90;;;;;;5035610;28;20208;-88
2021/12/10 02:29:07;;;;;;;4.55;2.08;;;2.90;99.90;;;;;;5035569;28;20831;-86
2021/12/10 02:31:34;;;;;;;2.67;1.60;;;2.90;99.90;;;;;;5035291;28;20209;-88
2021/12/10 02:34:02;;;;;;;4.73;2.57;;;2.80;99.90;;;;;;5035414;28;20472;-87
2021/12/10 02:36:29;;;;;;;4.33;2.03;;;2.80;99.90;;;;;;5034822;28;20932;-88
2021/12/10 02:38:59;;;;;;;4.90;2.70;;;2.70;99.90;;;;;;5035340;28;20462;-88
2021/12/10 02:41:29;;;;;;;7.37;2.47;;;2.70;99.90;;;;;;5039710;28;20543;-87
2021/12/10 02:43:58;;;;;;;8.98;3.10;;;2.70;99.90;;;;;;5055902;28;20482;-88
2021/12/10 02:46:26;;;;;;;3.83;2.63;;;2.70;99.90;;;;;;5041376;28;20579;-87
2021/12/10 02:48:54;;;;;;;8.75;2.95;;;2.70;99.90;;;;;;5035570;28;20196;-87
2021/12/10 02:51:22;;;;;;;3.13;1.93;;;2.70;99.90;;;;;;5035509;28;20203;-87
2021/12/10 02:53:49;;;;;;;4.67;2.67;;;2.60;99.90;;;;;;5035990;28;20484;-87
2021/12/10 02:56:20;;;;;;;5.32;2.85;;;2.50;99.90;;;;;;5042023;28;20435;-87
2021/12/10 02:58:50;;;;;;;6.32;3.10;;;2.50;99.90;;;;;;5045347;28;20203;-87
2021/12/10 03:01:23;;;;;;;4.00;2.90;;;2.60;99.90;;;;;;5039658;28;20227;-87
2021/12/10 03:03:50;;;;;;;4.57;2.70;;;2.50;99.90;;;;;;5034041;28;20234;-88
2021/12/10 03:06:18;;;;;;;7.30;3.72;;;2.40;99.90;;;;;;5035006;28;20450;-87
2021/12/10 03:08:48;;;;;;;4.17;3.23;;;2.40;99.90;;;;;;5018346;28;20192;-87
2021/12/10 03:11:19;;;;;;;7.55;4.68;;;2.30;99.90;;;;;;5040957;28;20459;-88
2021/12/10 03:13:47;;;;;;;13.25;6.40;;;2.30;99.90;;;;;;5051535;28;20226;-87
2021/12/10 03:16:14;;;;;;;15.10;5.60;;;2.30;99.90;;;;;;5059149;28;20216;-86
2021/12/10 03:18:41;;;;;;;10.70;5.47;;;2.30;99.90;;;;;;5055354;28;20191;-87
2021/12/10 03:21:10;;;;;;;8.87;4.77;;;2.30;99.90;;;;;;5049838;28;20231;-87
2021/12/10 03:23:42;;;;;;;8.05;4.72;;;2.40;99.90;;;;;;5046510;28;21002;-87
2021/12/10 03:26:10;;;;;;;11.52;3.95;;;2.30;99.90;;;;;;5046843;28;20227;-88
2021/12/10 03:28:39;;;;;;;8.90;5.00;;;2.30;99.90;;;;;;5036103;28;20215;-87
2021/12/10 03:31:07;;;;;;;6.80;3.97;;;2.20;99.90;;;;;;5040414;28;20197;-87
2021/12/10 03:33:34;;;;;;;5.78;4.35;;;2.30;99.90;;;;;;5053694;28;20335;-87
2021/12/10 03:36:01;;;;;;;9.68;3.75;;;2.30;99.90;;;;;;5034812;28;20223;-88
2021/12/10 03:38:29;;;;;;;9.10;4.32;;;2.20;99.90;;;;;;5043532;28;20198;-87
2021/12/10 03:40:59;;;;;;;7.75;4.03;;;2.20;99.90;;;;;;5043759;28;20225;-88
2021/12/10 03:43:27;;;;;;;14.10;5.70;;;2.20;99.90;;;;;;5056626;28;20207;-88
2021/12/10 03:45:58;;;;;;;11.65;4.60;;;2.10;99.90;;;;;;5040463;28;20451;-87
2021/12/10 03:48:28;;;;;;;9.23;5.15;;;2.00;99.90;;;;;;5034393;28;20208;-88
2021/12/10 03:50:56;;;;;;;8.63;4.85;;;2.10;99.90;;;;;;5034817;28;20206;-87
2021/12/10 03:53:23;;;;;;;5.03;4.32;;;2.10;99.90;;;;;;5033521;28;20240;-87
2021/12/10 03:55:50;;;;;;;8.90;4.65;;;2.00;99.90;;;;;;5033551;28;20210;-88
2021/12/10 03:58:18;;;;;;;7.85;4.68;;;2.10;99.90;;;;;;5032481;28;20204;-87
2021/12/10 04:00:49;;;;;;;5.72;3.92;;;2.00;99.90;;;;;;5047796;28;20204;-87
2021/12/10 04:03:21;;;;;;;9.50;3.55;;;2.00;99.90;;;;;;5051474;28;20216;-87
2021/12/10 04:05:48;;;;;;;8.27;3.83;;;2.00;99.90;;;;;;5034147;28;20659;-88
2021/12/10 04:08:16;;;;;;;6.47;4.22;;;2.00;99.90;;;;;;5033481;28;20199;-87
2021/12/10 04:10:43;;;;;;;6.63;3.55;;;2.00;99.90;;;;;;5033903;28;20232;-87
2021/12/10 04:13:11;;;;;;;13.23;3.80;;;2.00;99.90;;;;;;5032722;28;20204;-88
2021/12/10 04:15:39;;;;;;;6.03;2.95;;;1.90;99.90;;;;;;5034033;28;20219;-87
2021/12/10 04:18:08;;;;;;;8.98;5.90;;;1.90;99.90;;;;;;5034159;28;20199;-87
2021/12/10 04:20:37;;;;;;;7.18;3.85;;;1.90;99.90;;;;;;5032384;28;20198;-87
2021/12/10 04:23:07;;;;;;;8.43;4.00;;;1.90;99.90;;;;;;5041679;28;20208;-86
2021/12/10 04:25:34;;;;;;;7.45;4.55;;;1.90;99.90;;;;;;5050057;28;20203;-88
2021/12/10 04:30:35;;;;;;;7.63;5.22;;;2.00;99.90;;;;;;5019008;28;20204;-87
2021/12/10 04:33:03;;;;;;;9.52;4.80;;;1.90;99.90;;;;;;5022062;28;20208;-90
2021/12/10 04:35:30;;;;;;;8.05;4.30;;;2.00;99.90;;;;;;5030006;28;20243;-90
2021/12/10 04:37:58;;;;;;;8.93;4.95;;;2.00;99.90;;;;;;5029073;28;20451;-90
2021/12/10 04:40:25;;;;;;;10.63;5.68;;;2.00;99.90;;;;;;5037528;28;20209;-90
2021/12/10 04:42:53;;;;;;;9.52;5.70;;;1.90;99.90;;;;;;5037845;28;20362;-90
2021/12/10 04:45:21;;;;;;;6.13;4.60;;;2.00;99.90;;;;;;5037914;28;20193;-89
2021/12/10 04:47:51;;;;;;;14.40;5.80;;;1.90;99.90;;;;;;5036809;28;20181;-90
2021/12/10 04:50:20;;;;;;;11.68;6.22;;;1.80;99.90;;;;;;5019723;28;20222;-88
2021/12/10 04:52:48;;;;;;;12.82;6.60;;;1.70;99.90;;;;;;5010266;28;20189;-87
2021/12/10 04:55:17;;;;;;;17.88;8.23;;;1.70;99.90;;;;;;5018082;28;20559;-88
2021/12/10 04:57:45;;;;;;;12.02;6.80;;;1.70;99.90;;;;;;5023235;28;20182;-88
2021/12/10 05:00:16;;;;;;;17.80;7.68;;;1.60;99.90;;;;;;5017931;28;20265;-90
2021/12/10 05:02:44;;;;;;;10.73;5.88;;;1.60;99.90;;;;;;5017896;28;20223;-89
2021/12/10 05:05:12;;;;;;;9.07;6.55;;;1.60;99.90;;;;;;5021233;28;20180;-88
2021/12/10 05:07:39;;;;;;;8.95;6.45;;;1.70;99.90;;;;;;5017725;28;20237;-89
2021/12/10 05:10:08;;;;;;;12.18;6.68;;;1.60;99.90;;;;;;5017814;28;20196;-88
2021/12/10 05:12:36;;;;;;;9.80;6.40;;;1.60;99.90;;;;;;5018459;28;20190;-89
2021/12/10 05:15:06;;;;;;;9.48;7.82;;;1.50;99.90;;;;;;5037607;28;20199;-90
2021/12/10 05:17:34;;;;;;;11.90;8.10;;;1.50;99.90;;;;;;5028937;28;20204;-90
2021/12/10 05:20:05;;;;;;;8.48;6.40;;;1.40;99.90;;;;;;5031875;28;20246;-89
2021/12/10 05:22:32;;;;;;;15.93;6.82;;;1.40;99.90;;;;;;5034188;28;20210;-89
2021/12/10 05:24:59;;;;;;;11.97;6.60;;;1.40;99.90;;;;;;5021351;28;20191;-89
2021/12/10 05:27:25;;;;;;;7.93;6.60;;;1.40;99.90;;;;;;5024549;28;20422;-88
2021/12/10 05:29:54;;;;;;;12.45;7.15;;;1.50;99.90;;;;;;5031463;28;20224;-89
2021/12/10 05:32:21;;;;;;;9.05;7.03;;;1.50;99.90;;;;;;5027214;28;20182;-90
2021/12/10 05:34:47;;;;;;;9.45;7.28;;;1.50;99.90;;;;;;5020916;28;20196;-88
2021/12/10 05:37:15;;;;;;;11.88;7.85;;;1.50;99.90;;;;;;5015756;28;20268;-90
2021/12/10 05:39:41;;;;;;;14.20;7.30;;;1.50;99.90;;;;;;5033466;28;20221;-88
2021/12/10 05:42:09;;;;;;;10.18;7.50;;;1.50;99.90;;;;;;5025023;28;20692;-89
2021/12/10 05:44:38;;;;;;;8.98;6.75;;;1.40;99.90;;;;;;5025328;28;20210;-89
2021/12/10 05:47:07;;;;;;;21.80;8.55;;;1.40;99.90;;;;;;5020789;28;20216;-89
2021/12/10 05:49:34;;;;;;;9.43;6.60;;;1.50;99.90;;;;;;5001294;28;20244;-89
2021/12/10 05:52:02;;;;;;;12.85;7.75;;;1.50;99.90;;;;;;5009160;28;20198;-90
2021/12/10 05:54:29;;;;;;;9.63;7.20;;;1.50;99.90;;;;;;5034558;28;20230;-88
2021/12/10 05:56:56;;;;;;;11.10;6.10;;;1.40;99.90;;;;;;5016902;28;20196;-89
2021/12/10 05:59:23;;;;;;;8.57;6.97;;;1.50;99.90;;;;;;5014825;28;20211;-89
2021/12/10 06:01:50;;;;;;;8.32;6.28;;;1.50;99.90;;;;;;5025422;28;20227;-89
2021/12/10 06:04:23;;;;;;;12.98;6.85;;;1.50;99.90;;;;;;5039637;28;20255;-89
2021/12/10 06:06:50;;;;;;;9.40;6.75;;;1.50;99.90;;;;;;5023573;28;20207;-89
2021/12/10 06:09:17;;;;;;;8.43;6.32;;;1.40;99.90;;;;;;5009868;28;20235;-88
2021/12/10 06:11:44;;;;;;;11.10;7.47;;;1.40;99.90;;;;;;5018663;28;20707;-89
2021/12/10 06:14:11;;;;;;;10.95;6.15;;;1.30;99.90;;;;;;5020387;28;20199;-89
2021/12/10 06:16:38;;;;;;;15.85;6.63;;;1.30;99.90;;;;;;5005159;28;20224;-89
2021/12/10 06:19:06;;;;;;;16.25;7.03;;;1.20;99.90;;;;;;5001208;28;20227;-89
2021/12/10 06:21:35;;;;;;;16.33;8.60;;;1.20;99.90;;;;;;5018156;28;20220;-89
2021/12/10 06:24:05;;;;;;;14.65;9.88;;;1.20;99.90;;;;;;5014661;28;20204;-88
2021/12/10 06:26:32;;;;;;;19.10;13.32;;;1.30;99.90;;;;;;5019470;28;20200;-89
2021/12/10 06:28:59;;;;;;;11.05;8.00;;;1.40;99.90;;;;;;5015213;28;20235;-89
2021/12/10 06:31:26;;;;;;;12.98;8.95;;;1.40;99.90;;;;;;5015030;28;20200;-89
2021/12/10 06:33:54;;;;;;;10.15;8.05;;;1.40;99.90;;;;;;5008765;28;20240;-89
2021/12/10 06:36:21;;;;;;;10.43;8.98;;;1.40;99.90;;;;;;5012121;28;20201;-88
2021/12/10 06:38:51;;;;;;;14.52;8.20;;;1.40;99.90;;;;;;5017729;28;20626;-89
2021/12/10 06:41:19;;;;;;;14.90;8.38;;;1.30;99.90;;;;;;5007654;28;20201;-90
2021/12/10 06:43:47;;;;;;;16.00;10.05;;;1.30;99.90;;;;;;5015896;28;20199;-89
2021/12/10 06:46:15;;;;;;;15.32;9.13;;;1.20;99.90;;;;;;5008644;28;20666;-88
2021/12/10 06:48:43;;;;;;;11.40;8.75;;;1.30;99.90;;;;;;4998733;28;20228;-89
2021/12/10 06:51:15;;;;;;;10.10;7.85;;;1.30;99.90;;;;;;4998513;28;20204;-89
2021/12/10 06:53:44;;;;;;;11.73;8.15;;;1.40;99.90;;;;;;5013769;28;20568;-89
2021/12/10 06:56:13;;;;;;;14.20;8.63;;;1.30;99.90;;;;;;5000461;28;20565;-89
2021/12/10 06:58:41;;;;;;;10.35;8.15;;;1.30;99.90;;;;;;4996000;28;20220;-89
2021/12/10 07:01:12;;;;;;;15.30;10.40;;;1.40;99.90;;;;;;4996332;28;20201;-88
2021/12/10 07:03:40;;;;;;;14.40;10.30;;;1.40;99.90;;;;;;4996357;28;20228;-88
2021/12/10 07:06:08;;;;;;;14.20;9.00;;;1.40;99.90;;;;;;4998312;28;20193;-89
2021/12/10 07:08:38;;;;;;;14.15;9.38;;;1.40;99.90;;;;;;4998604;28;20226;-89
2021/12/10 07:11:06;;;;;;;13.98;9.68;;;1.30;99.90;;;;;;5012564;28;20221;-89
2021/12/10 07:13:36;;;;;;;17.25;12.05;;;1.30;99.90;;;;;;5027823;28;20199;-89
2021/12/10 07:16:06;;;;;;;18.33;10.93;;;1.40;99.90;;;;;;5022112;28;20252;-89
2021/12/10 07:18:34;;;;;;;13.55;10.32;;;1.30;99.90;;;;;;5007803;28;20217;-89
2021/12/10 07:21:01;;;;;;;14.20;10.35;;;1.40;99.90;;;;;;5012864;28;20270;-88
2021/12/10 07:23:28;;;;;;;20.92;11.25;;;1.40;99.90;;;;;;5017806;28;20303;-89
2021/12/10 07:25:55;;;;;;;17.52;11.50;;;1.50;99.90;;;;;;5011799;28;20216;-89
2021/12/10 07:28:22;;;;;;;18.33;11.82;;;1.50;99.90;;;;;;5019977;28;20404;-89
2021/12/10 07:30:52;;;;;;;15.13;10.40;;;1.40;99.90;;;;;;5012234;28;20196;-88
2021/12/10 07:33:19;;;;;;;17.17;10.82;;;1.50;99.90;;;;;;5032935;28;20202;-88
2021/12/10 07:35:48;;;;;;;20.17;11.73;;;1.40;99.90;;;;;;5023628;28;20206;-89
2021/12/10 07:38:16;;;;;;;21.77;11.80;;;1.50;99.90;;;;;;5026837;28;21445;-89
2021/12/10 07:40:43;;;;;;;30.27;13.93;;;1.60;99.90;;;;;;5017491;28;20207;-89
2021/12/10 07:43:11;;;;;;;25.13;13.90;;;1.60;99.90;;;;;;5016106;28;20224;-89
2021/12/10 07:45:40;;;;;;;20.23;12.40;;;1.70;99.90;;;;;;5016063;28;20201;-89
2021/12/10 07:48:11;;;;;;;22.90;14.05;;;1.90;99.90;;;;;;5026183;28;20243;-90
2021/12/10 07:50:47;;;;;;;19.95;12.60;;;1.90;99.90;;;;;;5015821;28;20189;-90
2021/12/10 07:53:15;;;;;;;20.35;12.43;;;1.90;99.90;;;;;;5013636;28;20928;-90
2021/12/10 07:55:41;;;;;;;18.70;10.93;;;2.00;99.90;;;;;;5014461;28;20203;-90
2021/12/10 07:58:08;;;;;;;13.00;9.90;;;2.10;99.90;;;;;;4997988;28;20213;-90
2021/12/10 08:00:40;;;;;;;16.67;11.25;;;2.10;99.90;;;;;;4999659;28;20618;-90
2021/12/10 08:03:08;;;;;;;10.48;8.05;;;2.20;99.90;;;;;;4996965;28;20230;-90
2021/12/10 08:05:35;;;;;;;12.82;10.25;;;2.30;99.90;;;;;;4997102;28;20206;-90
2021/12/10 08:08:03;;;;;;;13.07;9.43;;;2.40;99.90;;;;;;4997397;28;20218;-90
2021/12/10 08:10:30;;;;;;;12.00;8.65;;;2.40;99.90;;;;;;4998098;28;20202;-90
2021/12/10 08:12:58;;;;;;;13.95;10.70;;;2.50;99.90;;;;;;4997289;28;20197;-90
2021/12/10 08:15:25;;;;;;;13.67;9.93;;;2.50;99.90;;;;;;4997167;28;20209;-88
2021/12/10 08:17:52;;;;;;;15.40;9.98;;;2.60;99.90;;;;;;4995878;28;20979;-88
2021/12/10 08:20:23;;;;;;;13.80;10.55;;;2.60;99.90;;;;;;5006636;28;20227;-88
2021/12/10 08:22:53;;;;;;;12.35;10.27;;;2.60;99.90;;;;;;5003306;28;20224;-88
2021/12/10 08:25:23;;;;;;;21.07;12.07;;;2.70;99.90;;;;;;4997005;28;20210;-89
2021/12/10 08:27:50;;;;;;;13.50;10.00;;;2.90;99.90;;;;;;4985977;28;20832;-89
2021/12/10 08:30:20;;;;;;;20.02;11.85;;;3.00;99.90;;;;;;4998300;28;20481;-88
2021/12/10 08:32:48;;;;;;;15.93;9.60;;;3.10;99.90;;;;;;4992532;28;20192;-87
2021/12/10 08:35:19;;;;;;;17.27;10.73;;;3.30;99.90;;;;;;5019613;28;21328;-87
2021/12/10 08:37:48;;;;;;;17.27;10.77;;;3.40;99.90;;;;;;5027910;28;20485;-88
2021/12/10 08:40:19;;;;;;;18.73;11.37;;;3.40;99.90;;;;;;5011344;28;20477;-89
2021/12/10 08:42:46;;;;;;;14.40;9.83;;;3.50;99.90;;;;;;4997558;28;20487;-89
2021/12/10 08:45:13;;;;;;;17.23;9.30;;;3.50;99.90;;;;;;4998909;28;20460;-89
2021/12/10 08:47:40;;;;;;;15.40;10.03;;;3.60;99.90;;;;;;5001159;28;20449;-87
2021/12/10 08:50:08;;;;;;;16.47;9.60;;;3.70;99.90;;;;;;5025223;28;20470;-88
2021/12/10 08:52:35;;;;;;;16.13;8.40;;;3.80;99.90;;;;;;4999701;28;20460;-89
2021/12/10 08:55:04;;;;;;;14.80;9.03;;;3.80;99.90;;;;;;5006251;28;20458;-88
2021/12/10 08:57:31;;;;;;;12.57;8.73;;;3.80;99.90;;;;;;5010166;28;20458;-89
2021/12/10 08:59:58;;;;;;;15.03;9.37;;;3.90;99.90;;;;;;5000184;28;20614;-89
2021/12/10 09:02:25;;;;;;;12.97;10.50;;;4.00;99.90;;;;;;4999494;28;20483;-89
2021/12/10 09:04:52;;;;;;;13.90;10.13;;;4.00;99.90;;;;;;5000576;28;20459;-88
2021/12/10 09:07:19;;;;;;;11.73;9.13;;;4.00;99.90;;;;;;5010960;28;20458;-89
2021/12/10 09:09:48;;;;;;;13.70;8.50;;;4.00;99.90;;;;;;5021645;28;20458;-87
2021/12/10 09:12:19;;;;;;;12.30;8.20;;;3.90;99.90;;;;;;5039909;28;20540;-88
2021/12/10 09:14:50;;;;;;;11.30;7.60;;;3.90;99.90;;;;;;5031016;28;20437;-89
2021/12/10 09:17:21;;;;;;;9.60;7.40;;;3.90;99.90;;;;;;5019875;28;20444;-89
2021/12/10 09:19:49;;;;;;;14.70;7.70;;;3.90;99.90;;;;;;5006403;28;20556;-80
2021/12/10 09:22:17;;;;;;;8.97;7.13;;;3.90;99.90;;;;;;5009448;28;20480;-78
2021/12/10 09:24:46;;;;;;;10.97;8.80;;;3.90;99.90;;;;;;5020415;28;20547;-78
2021/12/10 09:27:14;;;;;;;19.90;10.87;;;3.90;99.90;;;;;;5021454;28;20448;-78
2021/12/10 09:29:45;;;;;;;13.87;10.90;;;3.80;99.90;;;;;;5013172;28;21141;-87
2021/12/10 09:32:14;;;;;;;13.87;8.80;;;3.70;99.90;;;;;;5038255;28;20452;-85
2021/12/10 09:34:42;;;;;;;12.87;8.70;;;3.60;99.90;;;;;;5032354;28;20446;-85
2021/12/10 09:37:09;;;;;;;15.53;10.30;;;3.60;99.90;;;;;;5030323;28;20462;-85
2021/12/10 09:39:37;;;;;;;13.03;9.93;;;3.60;99.90;;;;;;5030635;28;20486;-86
2021/12/10 09:42:05;;;;;;;16.10;10.03;;;3.70;99.90;;;;;;5022360;28;20432;-86
2021/12/10 09:44:32;;;;;;;16.43;10.70;;;3.70;99.90;;;;;;5006298;28;20442;-85
2021/12/10 09:47:01;;;;;;;14.63;10.50;;;3.80;99.90;;;;;;5008171;28;20471;-86
2021/12/10 09:49:29;;;;;;;13.67;10.20;;;3.90;99.90;;;;;;5005656;28;20879;-86
2021/12/10 09:52:05;;;;;;;13.57;8.90;;;3.90;99.90;;;;;;5012456;28;20525;-86
2021/12/10 09:54:34;;;;;;;14.17;8.73;;;3.90;99.90;;;;;;5033866;28;20433;-87
2021/12/10 09:57:05;;;;;;;13.80;8.10;;;4.10;99.90;;;;;;5039520;28;20444;-86
2021/12/10 09:59:33;;;;;;;10.10;7.00;;;4.30;99.90;;;;;;5028439;28;20552;-88
2021/12/10 10:02:03;;;;;;;10.13;6.30;;;4.30;99.90;;;;;;5038025;28;20449;-86
2021/12/10 10:04:34;;;;;;;15.07;7.43;;;4.30;99.90;;;;;;5013422;28;20486;-86
2021/12/10 10:07:05;;;;;;;13.53;7.97;;;4.30;99.90;;;;;;5002688;28;20942;-87
2021/12/10 10:09:33;;;;;;;10.30;6.17;;;4.30;99.90;;;;;;5020096;28;20453;-85
2021/12/10 10:12:05;;;;;;;8.67;6.07;;;4.40;99.90;;;;;;5021542;28;20446;-87
2021/12/10 10:14:32;;;;;;;7.27;5.00;;;4.50;99.90;;;;;;5018644;28;20517;-86
2021/12/10 10:16:59;;;;;;;7.47;5.20;;;4.60;99.80;;;;;;5020078;28;20513;-85
2021/12/10 10:19:28;;;;;;;9.17;6.97;;;4.80;99.80;;;;;;5019429;28;20478;-89
2021/12/10 10:21:58;;;;;;;14.73;6.60;;;4.80;99.30;;;;;;5018423;28;20469;-89
2021/12/10 10:24:29;;;;;;;10.23;6.17;;;4.90;98.90;;;;;;5006485;28;20696;-88
2021/12/10 10:26:59;;;;;;;6.80;4.67;;;5.00;98.70;;;;;;5001356;28;20460;-86
2021/12/10 10:29:46;;;;;;;9.17;6.20;;;5.00;98.20;;;;;;5028546;22;20503;-89
2021/12/10 10:35:22;;;;;;;20.10;7.30;;;4.90;98.10;;;;;;5043300;28;20483;-89
2021/12/10 10:37:50;;;;;;;14.43;6.43;;;4.90;98.00;;;;;;5040105;28;20457;-89
2021/12/10 10:40:24;;;;;;;15.47;6.37;;;4.90;98.20;;;;;;5040300;28;20842;-89
2021/12/10 10:42:52;;;;;;;10.60;6.87;;;4.90;98.10;;;;;;5020062;28;20489;-89
2021/12/10 10:45:23;;;;;;;7.23;5.03;;;4.90;97.80;;;;;;5033870;28;20440;-88
2021/12/10 10:47:50;;;;;;;9.23;5.00;;;4.90;98.10;;;;;;5028735;28;20529;-90
2021/12/10 10:50:22;;;;;;;18.23;5.30;;;4.90;97.80;;;;;;5026260;28;20469;-89
2021/12/10 10:52:52;;;;;;;17.23;10.13;;;5.00;98.30;;;;;;5019643;28;20529;-88
2021/12/10 10:55:24;;;;;;;7.87;5.70;;;5.20;98.40;;;;;;5009242;28;20435;-89
2021/12/10 10:58:04;;;;;;;14.93;6.50;;;5.30;98.10;;;;;;5008430;28;20447;-88
2021/12/10 11:00:39;;;;;;;10.40;5.40;;;5.40;98.00;;;;;;5018298;28;20469;-88
2021/12/10 11:03:13;;;;;;;7.47;4.80;;;5.50;97.40;;;;;;5017850;28;20477;-88
2021/12/10 11:05:47;;;;;;;7.67;5.40;;;5.30;96.90;;;;;;5014145;28;20631;-88
2021/12/10 11:08:14;;;;;;;10.00;6.50;;;5.20;97.20;;;;;;5024139;28;20468;-87
2021/12/10 11:10:45;;;;;;;9.57;6.17;;;5.30;97.10;;;;;;5023227;28;20481;-89
2021/12/10 11:13:15;;;;;;;7.53;4.87;;;5.40;97.00;;;;;;5010980;28;20455;-88
2021/12/10 11:16:01;;;;;;;11.33;5.70;;;5.30;97.00;;;;;;5009262;28;20707;-89
2021/12/10 11:18:28;;;;;;;11.33;6.30;;;5.40;96.80;;;;;;5007247;28;20502;-88
2021/12/10 11:20:56;;;;;;;19.10;7.70;;;5.50;97.00;;;;;;5009830;28;20459;-88
2021/12/10 11:23:26;;;;;;;13.40;6.97;;;5.50;96.70;;;;;;5017363;28;20482;-88
2021/12/10 11:25:55;;;;;;;8.17;6.50;;;5.50;96.90;;;;;;5019157;28;20450;-88
2021/12/10 11:28:26;;;;;;;12.70;7.40;;;5.50;97.00;;;;;;5012985;28;20927;-88
2021/12/10 11:31:02;;;;;;;7.40;5.30;;;5.50;97.30;;;;;;5014042;28;20481;-89
2021/12/10 11:33:34;;;;;;;9.30;5.33;;;5.50;95.50;;;;;;5021431;28;20460;-88
2021/12/10 11:36:07;;;;;;;6.37;3.90;;;5.40;95.90;;;;;;5022545;28;20475;-87
2021/12/10 11:38:35;;;;;;;5.03;4.07;;;5.40;94.60;;;;;;5019137;28;20440;-88
2021/12/10 11:41:06;;;;;;;8.93;4.07;;;5.40;95.10;;;;;;5001264;28;20517;-88
2021/12/10 11:43:56;;;;;;;13.27;3.70;;;5.40;95.10;;;;;;5002609;28;20471;-87
2021/12/10 11:46:47;;;;;;;3.47;2.23;;;5.50;94.70;;;;;;5018066;28;20482;-88
2021/12/10 11:49:22;;;;;;;3.00;1.47;;;5.40;93.40;;;;;;5020820;28;20497;-88
2021/12/10 11:51:56;;;;;;;2.50;1.20;;;5.20;93.60;;;;;;5022110;28;20469;-87
2021/12/10 11:54:31;;;;;;;5.33;1.77;;;5.10;94.00;;;;;;5019586;28;20439;-87
2021/12/10 11:57:02;;;;;;;3.83;1.33;;;5.10;94.60;;;;;;5017302;28;20937;-87
2021/12/10 11:59:32;;;;;;;1.20;1.10;;;5.00;95.50;;;;;;5019973;28;20473;-87
2021/12/10 12:02:04;;;;;;;2.80;1.90;;;4.80;96.30;;;;;;5028559;28;20512;-87
2021/12/10 12:04:33;;;;;;;1.43;1.30;;;4.60;98.50;;;;;;5017684;28;20485;-87
2021/12/10 12:07:38;;;;;;;1.40;1.20;;;4.30;99.90;;;;;;5017747;28;20540;-88
2021/12/10 12:10:19;;;;;;;3.00;1.13;;;4.10;99.90;;;;;;5027992;28;20503;-86
2021/12/10 12:12:49;;;;;;;1.97;1.00;;;4.00;99.90;;;;;;5024362;28;20572;-87
2021/12/10 12:15:26;;;;;;;1.73;1.30;;;3.70;99.90;;;;;;5019794;28;20437;-85
2021/12/10 12:17:56;;;;;;;3.60;2.00;;;3.50;99.90;;;;;;5027608;28;20460;-86
2021/12/10 12:20:43;;;;;;;4.40;1.60;;;3.40;99.90;;;;;;5025575;28;20459;-87
2021/12/10 12:26:05;;;;;;;4.20;2.60;;;3.40;99.90;;;;;;5024644;28;20196;-87
2021/12/10 12:28:32;;;;;;;3.10;2.10;;;3.40;99.90;;;;;;5032329;28;20421;-88
2021/12/10 12:31:06;;;;;;;2.90;1.90;;;3.40;99.90;;;;;;5026781;28;20217;-87
2021/12/10 12:33:52;;;;;;;4.30;2.70;;;3.30;99.90;;;;;;5036496;28;20493;-86
2021/12/10 12:36:34;;;;;;;5.47;3.20;;;3.20;99.90;;;;;;5017705;28;20469;-90
2021/12/10 12:39:36;;;;;;;4.47;3.43;;;3.20;99.90;;;;;;5009343;28;20644;-90
2021/12/10 12:42:17;;;;;;;5.60;3.60;;;3.10;99.90;;;;;;5020095;28;20940;-89
2021/12/10 12:44:46;;;;;;;5.15;3.30;;;3.10;99.90;;;;;;5023205;28;20476;-88
2021/12/10 12:47:15;;;;;;;11.13;3.30;;;3.20;99.90;;;;;;5008562;28;20270;-89
2021/12/10 12:50:15;;;;;;;6.10;2.77;;;3.30;99.90;;;;;;5011956;28;20464;-84
2021/12/10 12:52:48;;;;;;;3.90;2.23;;;3.20;99.90;;;;;;5007037;28;20476;-90
2021/12/10 12:55:36;;;;;;;4.25;2.00;;;3.10;99.90;;;;;;5020955;28;20506;-90
2021/12/10 12:58:16;;;;;;;4.63;2.85;;;3.20;99.90;;;;;;5028996;28;20255;-86
2021/12/10 13:01:16;;;;;;;3.05;2.58;;;3.20;99.90;;;;;;5033056;28;20286;-89
2021/12/10 13:03:47;;;;;;;3.72;2.83;;;3.30;99.90;;;;;;5038681;28;20218;-89
2021/12/10 13:06:17;;;;;;;2.50;2.20;;;3.30;99.90;;;;;;5022835;28;20252;-89
2021/12/10 13:08:58;;;;;;;5.00;2.40;;;3.30;99.90;;;;;;5015258;28;20458;-91
2021/12/10 13:11:29;;;;;;;2.77;2.33;;;3.30;99.90;;;;;;5030854;28;20206;-88
2021/12/10 13:14:12;;;;;;;3.03;2.23;;;3.30;99.90;;;;;;5026243;28;20441;-89
2021/12/10 13:16:48;;;;;;;3.55;2.50;;;3.30;99.90;;;;;;5021281;28;20953;-90
2021/12/10 13:19:17;;;;;;;5.10;3.43;;;3.20;99.90;;;;;;5012544;28;20856;-87